Time;durP1;ratioP1;P1;durP2;ratioP2;P2;SDS_P1;SDS_P2;PMS_P1;PMS_P2;Temp;Humidity;BMP_temperature;BMP_pressure;BME280_temperature;BME280_humidity;BME280_pressure;Samples;Min_cycle;Max_cycle;Signal;HPM_P1;HPM_P2
2021/09/19 00:00:41;;;;;;;14.97;7.40;;;7.90;99.90;;;;;;4424867;32;20473;-69
2021/09/19 00:03:08;;;;;;;10.53;6.67;;;7.90;99.90;;;;;;4425512;32;20128;-69
2021/09/19 00:05:35;;;;;;;14.33;7.60;;;7.90;99.90;;;;;;4425608;32;20147;-69
2021/09/19 00:08:02;;;;;;;14.70;7.03;;;7.90;99.90;;;;;;4423575;32;20207;-69
2021/09/19 00:10:29;;;;;;;13.13;7.03;;;7.90;99.90;;;;;;4423582;32;20153;-68
2021/09/19 00:12:56;;;;;;;13.07;7.40;;;7.90;99.90;;;;;;4423732;32;20147;-68
2021/09/19 00:15:23;;;;;;;14.13;7.83;;;7.90;99.90;;;;;;4423968;32;20204;-68
2021/09/19 00:17:50;;;;;;;14.60;7.77;;;7.90;99.90;;;;;;4423895;32;20513;-68
2021/09/19 00:20:17;;;;;;;15.07;7.17;;;7.90;99.90;;;;;;4425494;32;20395;-69
2021/09/19 00:22:44;;;;;;;11.73;6.80;;;7.90;99.90;;;;;;4425049;32;20130;-69
2021/09/19 00:25:12;;;;;;;13.47;7.10;;;7.90;99.90;;;;;;4424988;32;20138;-69
2021/09/19 00:27:40;;;;;;;12.37;6.90;;;7.90;99.90;;;;;;4425279;32;20178;-68
2021/09/19 00:30:07;;;;;;;13.83;6.93;;;8.00;99.90;;;;;;4425412;32;20192;-68
2021/09/19 00:32:35;;;;;;;12.33;7.10;;;7.90;99.90;;;;;;4423778;32;20142;-69
2021/09/19 00:35:02;;;;;;;13.47;7.10;;;7.90;99.90;;;;;;4425439;32;20176;-69
2021/09/19 00:37:30;;;;;;;13.80;7.47;;;8.00;99.90;;;;;;4423226;32;20180;-68
2021/09/19 00:39:57;;;;;;;11.87;6.53;;;8.00;99.90;;;;;;4425025;32;20397;-69
2021/09/19 00:42:24;;;;;;;11.13;6.50;;;8.00;99.90;;;;;;4424576;32;20135;-69
2021/09/19 00:45:06;;;;;;;10.00;5.60;;;8.00;99.90;;;;;;4426579;32;20143;-69
2021/09/19 00:47:33;;;;;;;10.93;6.03;;;7.90;99.90;;;;;;4428164;32;20214;-69
2021/09/19 00:50:01;;;;;;;10.60;6.70;;;7.90;99.90;;;;;;4427424;32;20212;-69
2021/09/19 00:52:28;;;;;;;9.97;5.70;;;7.90;99.90;;;;;;4426365;32;20183;-69
2021/09/19 00:54:59;;;;;;;9.60;5.63;;;7.90;99.90;;;;;;4426285;32;20124;-68
2021/09/19 00:57:27;;;;;;;11.73;6.60;;;7.90;99.90;;;;;;4428024;32;20179;-68
2021/09/19 00:59:55;;;;;;;9.90;6.00;;;7.90;99.90;;;;;;4427953;32;20172;-69
2021/09/19 01:02:22;;;;;;;11.20;6.17;;;7.90;99.90;;;;;;4425977;32;20196;-69
2021/09/19 01:04:49;;;;;;;11.20;5.90;;;7.90;99.90;;;;;;4425915;32;20131;-69
2021/09/19 01:07:16;;;;;;;10.60;6.00;;;7.90;99.90;;;;;;4426634;32;20150;-68
2021/09/19 01:09:43;;;;;;;10.90;5.90;;;7.90;99.90;;;;;;4427831;32;20188;-69
2021/09/19 01:12:11;;;;;;;13.50;6.40;;;7.90;99.90;;;;;;4426582;32;20135;-69
2021/09/19 01:14:41;;;;;;;12.00;6.40;;;7.90;99.90;;;;;;4428299;32;20212;-70
2021/09/19 01:17:09;;;;;;;11.80;5.90;;;7.90;99.90;;;;;;4426370;32;20134;-69
2021/09/19 01:19:36;;;;;;;12.00;5.90;;;7.90;99.90;;;;;;4427506;32;20138;-69
2021/09/19 01:22:05;;;;;;;9.93;5.90;;;7.90;99.90;;;;;;4427587;32;20135;-69
2021/09/19 01:24:33;;;;;;;12.77;5.90;;;7.90;99.90;;;;;;4427590;32;20134;-68
2021/09/19 01:27:00;;;;;;;10.23;5.63;;;7.90;99.90;;;;;;4425842;32;20139;-69
2021/09/19 01:29:27;;;;;;;10.67;6.03;;;7.90;99.90;;;;;;4427581;32;20131;-69
2021/09/19 01:31:56;;;;;;;10.37;5.33;;;7.90;99.90;;;;;;4425930;32;20517;-69
2021/09/19 01:34:24;;;;;;;11.33;6.00;;;7.90;99.90;;;;;;4427433;32;20181;-69
2021/09/19 01:36:52;;;;;;;10.00;5.77;;;8.00;99.90;;;;;;4425671;32;20123;-69
2021/09/19 01:39:20;;;;;;;8.70;5.50;;;8.00;99.90;;;;;;4427312;32;20173;-69
2021/09/19 01:41:49;;;;;;;10.17;5.60;;;8.00;99.90;;;;;;4427141;32;20232;-69
2021/09/19 01:44:16;;;;;;;9.53;5.77;;;8.00;99.90;;;;;;4425788;32;20123;-70
2021/09/19 01:46:43;;;;;;;8.83;5.63;;;8.10;99.90;;;;;;4426510;32;20234;-69
2021/09/19 01:49:10;;;;;;;8.80;4.93;;;8.00;99.90;;;;;;4426990;32;20218;-69
2021/09/19 01:51:37;;;;;;;9.03;5.07;;;8.10;99.90;;;;;;4425467;32;20124;-69
2021/09/19 01:54:04;;;;;;;9.00;5.27;;;8.10;99.90;;;;;;4426514;32;20438;-69
2021/09/19 01:56:32;;;;;;;9.13;5.63;;;8.00;99.90;;;;;;4427263;32;20420;-69
2021/09/19 01:58:59;;;;;;;12.13;5.50;;;8.10;99.90;;;;;;4426526;32;20138;-69
2021/09/19 02:01:26;;;;;;;10.43;5.20;;;8.10;99.90;;;;;;4424833;32;20566;-68
2021/09/19 02:03:54;;;;;;;9.87;5.23;;;8.10;99.90;;;;;;4425235;32;20184;-69
2021/09/19 02:06:21;;;;;;;9.53;5.40;;;8.10;99.90;;;;;;4426699;32;20262;-69
2021/09/19 02:08:49;;;;;;;10.73;5.30;;;8.10;99.90;;;;;;4424963;32;20155;-69
2021/09/19 02:11:17;;;;;;;8.20;5.03;;;8.10;99.90;;;;;;4427071;32;20139;-69
2021/09/19 02:13:44;;;;;;;9.23;5.10;;;8.10;99.90;;;;;;4427023;32;20434;-68
2021/09/19 02:16:12;;;;;;;12.80;5.20;;;8.10;99.90;;;;;;4426037;32;20171;-69
2021/09/19 02:18:39;;;;;;;10.57;5.00;;;8.10;99.90;;;;;;4426889;32;20136;-68
2021/09/19 02:21:08;;;;;;;8.63;5.33;;;8.00;99.90;;;;;;4425027;32;20134;-68
2021/09/19 02:23:35;;;;;;;8.37;4.97;;;8.00;99.90;;;;;;4424958;32;20127;-68
2021/09/19 02:26:02;;;;;;;8.80;4.80;;;8.00;99.90;;;;;;4426822;32;20134;-69
2021/09/19 02:28:29;;;;;;;11.07;5.23;;;8.00;99.90;;;;;;4424685;32;20173;-68
2021/09/19 02:30:56;;;;;;;8.23;4.80;;;8.00;99.90;;;;;;4426429;32;20418;-68
2021/09/19 02:33:23;;;;;;;8.83;5.20;;;8.10;99.90;;;;;;4424767;32;20183;-69
2021/09/19 02:35:50;;;;;;;9.50;4.90;;;8.00;99.90;;;;;;4426478;32;20127;-68
2021/09/19 02:38:16;;;;;;;11.80;4.73;;;8.00;99.90;;;;;;4425639;32;20203;-69
2021/09/19 02:40:43;;;;;;;12.77;5.20;;;8.00;99.90;;;;;;4424519;32;20212;-67
2021/09/19 02:43:10;;;;;;;7.63;4.53;;;8.00;99.90;;;;;;4426020;32;20141;-70
2021/09/19 02:45:37;;;;;;;9.40;5.10;;;8.10;99.90;;;;;;4426213;32;20419;-68
2021/09/19 02:48:04;;;;;;;9.27;4.70;;;8.10;99.90;;;;;;4424660;32;20124;-68
2021/09/19 02:50:32;;;;;;;7.23;4.10;;;8.10;99.90;;;;;;4424641;32;20131;-69
2021/09/19 02:52:58;;;;;;;6.47;4.57;;;8.10;99.90;;;;;;4426367;32;20123;-68
2021/09/19 02:55:25;;;;;;;7.70;4.60;;;8.10;99.90;;;;;;4424453;32;20183;-68
2021/09/19 02:57:52;;;;;;;8.37;4.77;;;8.10;99.90;;;;;;4426295;32;20137;-69
2021/09/19 03:00:21;;;;;;;8.73;4.77;;;8.10;99.90;;;;;;4426024;32;20129;-69
2021/09/19 03:02:49;;;;;;;6.93;4.60;;;8.10;99.90;;;;;;4424328;32;20127;-69
2021/09/19 03:05:17;;;;;;;10.00;4.87;;;8.20;99.90;;;;;;4425683;32;20176;-69
2021/09/19 03:07:44;;;;;;;8.23;4.50;;;8.20;99.90;;;;;;4425709;32;20220;-69
2021/09/19 03:10:13;;;;;;;8.83;4.90;;;8.10;99.90;;;;;;4425543;32;20143;-69
2021/09/19 03:12:40;;;;;;;8.40;4.50;;;8.10;99.90;;;;;;4425627;32;20162;-69
2021/09/19 03:15:08;;;;;;;7.60;4.70;;;8.10;99.90;;;;;;4425791;32;20129;-68
2021/09/19 03:17:34;;;;;;;8.30;4.50;;;8.20;99.90;;;;;;4424325;32;20126;-68
2021/09/19 03:20:04;;;;;;;7.77;4.73;;;8.30;99.90;;;;;;4424164;32;20160;-68
2021/09/19 03:22:31;;;;;;;8.03;4.80;;;8.30;99.90;;;;;;4425904;32;20175;-69
2021/09/19 03:24:58;;;;;;;7.93;4.60;;;8.30;99.90;;;;;;4425988;32;20483;-69
2021/09/19 03:27:25;;;;;;;8.80;4.60;;;8.30;99.90;;;;;;4425591;32;20138;-69
2021/09/19 03:29:51;;;;;;;7.37;4.57;;;8.30;99.90;;;;;;4425704;32;20151;-69
2021/09/19 03:32:18;;;;;;;7.60;4.40;;;8.30;99.90;;;;;;4424791;32;20129;-69
2021/09/19 03:34:45;;;;;;;9.10;5.03;;;8.20;99.90;;;;;;4424117;32;20191;-69
2021/09/19 03:37:12;;;;;;;10.37;4.63;;;8.30;99.90;;;;;;4425868;32;20126;-69
2021/09/19 03:39:38;;;;;;;7.17;4.80;;;8.30;99.90;;;;;;4424162;32;20158;-70
2021/09/19 03:42:05;;;;;;;7.47;4.40;;;8.20;99.90;;;;;;4426305;32;20403;-70
2021/09/19 03:44:32;;;;;;;8.53;4.47;;;8.20;99.90;;;;;;4423699;32;20518;-69
2021/09/19 03:46:58;;;;;;;8.80;4.37;;;8.20;99.90;;;;;;4423620;32;20533;-69
2021/09/19 03:49:25;;;;;;;8.07;4.37;;;8.20;99.90;;;;;;4423791;32;20127;-69
2021/09/19 03:51:53;;;;;;;10.63;5.17;;;8.30;99.90;;;;;;4425777;32;20123;-69
2021/09/19 03:54:20;;;;;;;10.73;4.70;;;8.30;99.90;;;;;;4425040;32;20386;-69
2021/09/19 03:56:46;;;;;;;7.03;4.43;;;8.30;99.90;;;;;;4423508;32;20143;-70
2021/09/19 03:59:13;;;;;;;6.63;4.37;;;8.30;99.90;;;;;;4425454;32;20219;-70
2021/09/19 04:01:40;;;;;;;8.50;4.50;;;8.30;99.90;;;;;;4424275;32;20339;-69
2021/09/19 04:04:07;;;;;;;6.90;4.37;;;8.20;99.90;;;;;;4423826;32;20443;-69
2021/09/19 04:06:34;;;;;;;11.03;4.40;;;8.20;99.90;;;;;;4424154;32;20223;-69
2021/09/19 04:09:00;;;;;;;8.53;4.37;;;8.30;99.90;;;;;;4425435;32;20191;-69
2021/09/19 04:11:27;;;;;;;7.83;3.90;;;8.30;99.90;;;;;;4425628;32;20129;-70
2021/09/19 04:13:54;;;;;;;7.20;4.57;;;8.30;99.90;;;;;;4425511;32;20166;-69
2021/09/19 04:16:21;;;;;;;6.70;4.07;;;8.30;99.90;;;;;;4424795;32;20119;-70
2021/09/19 04:18:47;;;;;;;6.83;3.83;;;8.30;99.90;;;;;;4428784;32;20149;-70
2021/09/19 04:21:15;;;;;;;6.50;3.90;;;8.20;99.90;;;;;;4428512;32;20140;-69
2021/09/19 04:23:42;;;;;;;6.80;4.43;;;8.20;99.90;;;;;;4427225;32;20343;-69
2021/09/19 04:26:08;;;;;;;6.70;3.97;;;8.30;99.90;;;;;;4428505;32;20433;-70
2021/09/19 04:28:35;;;;;;;6.77;3.67;;;8.30;99.90;;;;;;4426570;32;20135;-69
2021/09/19 04:31:02;;;;;;;6.63;3.60;;;8.30;99.90;;;;;;4427932;32;20180;-69
2021/09/19 04:33:29;;;;;;;6.90;3.77;;;8.30;99.90;;;;;;4428463;32;20306;-69
2021/09/19 04:35:56;;;;;;;9.07;3.73;;;8.30;99.90;;;;;;4428424;32;20134;-69
2021/09/19 04:38:22;;;;;;;7.63;4.07;;;8.30;99.90;;;;;;4426594;32;20255;-70
2021/09/19 04:40:49;;;;;;;5.73;3.70;;;8.30;99.90;;;;;;4428389;32;20376;-69
2021/09/19 04:43:16;;;;;;;8.77;3.87;;;8.30;99.90;;;;;;4426471;32;20437;-70
2021/09/19 04:45:43;;;;;;;6.50;3.77;;;8.30;99.90;;;;;;4427543;32;20177;-70
2021/09/19 04:48:10;;;;;;;5.77;3.70;;;8.30;99.90;;;;;;4427512;32;20449;-69
2021/09/19 04:50:36;;;;;;;6.27;3.73;;;8.40;99.90;;;;;;4428154;32;20131;-69
2021/09/19 04:53:03;;;;;;;7.30;4.17;;;8.40;99.90;;;;;;4428217;32;20203;-70
2021/09/19 04:55:30;;;;;;;5.93;4.03;;;8.40;99.90;;;;;;4427877;32;20198;-70
2021/09/19 04:57:56;;;;;;;8.93;4.20;;;8.40;99.90;;;;;;4427761;32;20199;-71
2021/09/19 05:00:23;;;;;;;11.00;3.87;;;8.50;99.90;;;;;;4427116;32;20173;-71
2021/09/19 05:02:50;;;;;;;6.27;3.53;;;8.40;99.90;;;;;;4427719;32;20142;-70
2021/09/19 05:05:17;;;;;;;9.20;3.83;;;8.40;99.90;;;;;;4427835;32;20126;-70
2021/09/19 05:07:44;;;;;;;6.57;3.87;;;8.40;99.90;;;;;;4427662;32;20179;-70
2021/09/19 05:10:11;;;;;;;7.33;4.10;;;8.40;99.90;;;;;;4427695;32;20149;-70
2021/09/19 05:12:38;;;;;;;7.60;3.87;;;8.40;99.90;;;;;;4425865;32;20262;-72
2021/09/19 05:15:06;;;;;;;6.97;4.00;;;8.40;99.90;;;;;;4427442;32;20449;-70
2021/09/19 05:17:33;;;;;;;6.23;3.97;;;8.40;99.90;;;;;;4427742;32;20183;-71
2021/09/19 05:20:00;;;;;;;7.27;3.70;;;8.40;99.90;;;;;;4426716;32;20128;-71
2021/09/19 05:22:27;;;;;;;6.17;3.63;;;8.50;99.90;;;;;;4426049;32;20184;-70
2021/09/19 05:24:54;;;;;;;9.90;4.00;;;8.50;99.90;;;;;;4427787;32;20127;-71
2021/09/19 05:27:21;;;;;;;6.13;3.83;;;8.50;99.90;;;;;;4427440;32;20146;-71
2021/09/19 05:29:47;;;;;;;5.57;3.53;;;8.50;99.90;;;;;;4425774;32;20135;-71
2021/09/19 05:32:14;;;;;;;6.87;3.90;;;8.50;99.90;;;;;;4425684;32;20227;-70
2021/09/19 05:34:41;;;;;;;9.40;4.00;;;8.60;99.90;;;;;;4425783;32;20191;-71
2021/09/19 05:37:08;;;;;;;10.07;4.10;;;8.60;99.90;;;;;;4426949;32;20219;-71
2021/09/19 05:39:34;;;;;;;5.90;3.60;;;8.70;99.90;;;;;;4422205;32;20466;-71
2021/09/19 05:42:01;;;;;;;8.17;3.73;;;8.70;99.90;;;;;;4427172;32;20541;-72
2021/09/19 05:44:28;;;;;;;8.23;3.60;;;8.70;99.90;;;;;;4425716;32;20198;-70
2021/09/19 05:46:55;;;;;;;6.97;3.77;;;8.70;99.90;;;;;;4425320;32;20178;-71
2021/09/19 05:49:21;;;;;;;6.40;4.00;;;8.70;99.90;;;;;;4427285;32;20196;-71
2021/09/19 05:51:48;;;;;;;5.37;3.67;;;8.70;99.90;;;;;;4425630;32;20457;-70
2021/09/19 05:54:15;;;;;;;5.03;3.40;;;8.70;99.90;;;;;;4425640;32;20186;-71
2021/09/19 05:56:42;;;;;;;6.67;3.37;;;8.90;99.90;;;;;;4427186;32;20135;-70
2021/09/19 05:59:09;;;;;;;6.90;3.50;;;8.90;99.90;;;;;;4426847;32;20336;-70
2021/09/19 06:01:35;;;;;;;6.50;3.50;;;8.90;99.90;;;;;;4425732;32;20352;-71
2021/09/19 06:04:03;;;;;;;6.97;3.53;;;8.90;99.90;;;;;;4427160;32;20127;-70
2021/09/19 06:06:29;;;;;;;10.07;3.50;;;8.80;99.90;;;;;;4427044;32;20502;-70
2021/09/19 06:08:56;;;;;;;6.00;3.40;;;8.90;99.90;;;;;;4426012;32;20242;-70
2021/09/19 06:11:23;;;;;;;5.63;3.20;;;8.90;99.90;;;;;;4426278;32;20130;-70
2021/09/19 06:13:50;;;;;;;6.30;3.50;;;8.90;99.90;;;;;;4426565;32;20133;-70
2021/09/19 06:16:17;;;;;;;5.67;3.43;;;8.90;99.90;;;;;;4426065;32;20188;-70
2021/09/19 06:18:43;;;;;;;7.83;3.50;;;8.90;99.90;;;;;;4425303;32;20163;-70
2021/09/19 06:21:10;;;;;;;7.63;3.40;;;9.00;99.90;;;;;;4426760;32;20387;-69
2021/09/19 06:23:37;;;;;;;6.90;3.03;;;8.90;99.90;;;;;;4426485;32;20144;-68
2021/09/19 06:26:04;;;;;;;5.40;3.30;;;8.90;99.90;;;;;;4425918;32;20145;-68
2021/09/19 06:28:30;;;;;;;5.97;3.77;;;8.90;99.90;;;;;;4426257;32;20181;-68
2021/09/19 06:30:59;;;;;;;7.40;3.43;;;9.00;99.90;;;;;;4425821;32;20203;-68
2021/09/19 06:33:27;;;;;;;7.73;3.20;;;8.90;99.90;;;;;;4425558;32;20147;-70
2021/09/19 06:35:54;;;;;;;5.97;3.70;;;8.90;99.90;;;;;;4425060;32;20127;-68
2021/09/19 06:38:20;;;;;;;5.70;3.20;;;8.90;99.90;;;;;;4424445;32;20151;-69
2021/09/19 06:40:47;;;;;;;4.43;3.23;;;9.00;99.90;;;;;;4424309;32;20139;-69
2021/09/19 06:43:14;;;;;;;7.30;3.33;;;8.90;99.90;;;;;;4426490;32;20131;-68
2021/09/19 06:45:41;;;;;;;4.87;3.27;;;9.00;99.90;;;;;;4426320;32;20139;-69
2021/09/19 06:48:08;;;;;;;7.20;3.27;;;9.00;99.90;;;;;;4426263;32;20462;-69
2021/09/19 06:50:34;;;;;;;4.90;2.80;;;9.10;99.90;;;;;;4426533;32;20134;-69
2021/09/19 06:53:02;;;;;;;4.87;3.00;;;9.20;99.90;;;;;;4424364;32;20131;-70
2021/09/19 06:55:29;;;;;;;5.13;3.27;;;9.20;99.90;;;;;;4426392;32;20180;-69
2021/09/19 06:57:56;;;;;;;4.20;3.20;;;9.20;99.90;;;;;;4424569;32;20158;-69
2021/09/19 07:00:24;;;;;;;9.80;3.70;;;9.30;99.90;;;;;;4426150;32;20399;-69
2021/09/19 07:02:51;;;;;;;5.47;3.23;;;9.40;99.90;;;;;;4424529;32;20240;-69
2021/09/19 07:05:20;;;;;;;6.40;3.20;;;9.40;99.90;;;;;;4425807;32;20180;-69
2021/09/19 07:07:46;;;;;;;4.90;2.93;;;9.50;99.90;;;;;;4423231;32;20174;-69
2021/09/19 07:10:14;;;;;;;6.70;2.77;;;9.50;99.90;;;;;;4425532;32;20199;-69
2021/09/19 07:12:42;;;;;;;6.13;3.23;;;9.60;99.90;;;;;;4424827;32;20161;-69
2021/09/19 07:15:09;;;;;;;4.23;2.87;;;9.60;99.90;;;;;;4423902;32;20146;-70
2021/09/19 07:17:36;;;;;;;7.00;3.30;;;9.70;99.90;;;;;;4424061;32;20154;-69
2021/09/19 07:20:04;;;;;;;5.57;3.07;;;9.70;99.90;;;;;;4425907;32;20127;-70
2021/09/19 07:22:30;;;;;;;6.40;3.10;;;9.80;99.90;;;;;;4425649;32;20140;-69
2021/09/19 07:24:58;;;;;;;5.73;2.97;;;9.80;99.90;;;;;;4425726;32;20136;-69
2021/09/19 07:27:25;;;;;;;4.83;3.10;;;9.80;99.90;;;;;;4425940;32;20135;-70
2021/09/19 07:29:52;;;;;;;5.53;3.07;;;9.90;99.90;;;;;;4425767;32;20219;-69
2021/09/19 07:32:19;;;;;;;5.97;3.23;;;9.80;99.90;;;;;;4424105;32;20180;-69
2021/09/19 07:34:45;;;;;;;5.60;2.90;;;9.80;99.90;;;;;;4425912;32;20135;-68
2021/09/19 07:37:14;;;;;;;7.23;3.10;;;9.80;99.90;;;;;;4425865;32;20385;-68
2021/09/19 07:39:41;;;;;;;5.37;3.00;;;9.80;99.90;;;;;;4425190;32;20217;-69
2021/09/19 07:42:08;;;;;;;4.43;2.77;;;9.80;99.90;;;;;;4424164;32;20360;-69
2021/09/19 07:44:35;;;;;;;5.90;2.93;;;9.80;99.90;;;;;;4425362;32;20176;-68
2021/09/19 07:47:02;;;;;;;4.73;2.90;;;9.70;99.90;;;;;;4423966;32;20158;-70
2021/09/19 07:49:29;;;;;;;5.10;2.70;;;9.80;99.90;;;;;;4424937;32;20148;-68
2021/09/19 07:51:57;;;;;;;6.37;2.67;;;9.80;99.90;;;;;;4423315;32;20155;-69
2021/09/19 07:54:24;;;;;;;5.13;3.00;;;9.80;99.90;;;;;;4423877;32;20135;-68
2021/09/19 07:56:50;;;;;;;4.87;2.90;;;9.80;99.90;;;;;;4423752;32;20165;-69
2021/09/19 07:59:17;;;;;;;5.00;2.90;;;9.80;99.90;;;;;;4423473;32;20158;-69
2021/09/19 08:01:44;;;;;;;5.83;2.80;;;9.80;99.90;;;;;;4424064;32;20143;-68
2021/09/19 08:04:11;;;;;;;6.13;3.00;;;9.90;99.90;;;;;;4425728;32;20188;-68
2021/09/19 08:06:38;;;;;;;9.03;3.20;;;9.90;99.90;;;;;;4425486;32;20446;-68
2021/09/19 08:09:05;;;;;;;6.30;2.97;;;9.90;99.90;;;;;;4424032;32;20208;-68
2021/09/19 08:11:32;;;;;;;3.57;2.40;;;9.90;99.90;;;;;;4424516;32;20132;-69
2021/09/19 08:14:06;;;;;;;4.30;2.90;;;9.90;99.90;;;;;;4423594;32;20143;-69
2021/09/19 08:16:34;;;;;;;7.43;2.90;;;9.90;99.90;;;;;;4423619;32;20176;-69
2021/09/19 08:19:02;;;;;;;5.67;2.63;;;9.90;99.90;;;;;;4423869;32;20180;-69
2021/09/19 08:21:29;;;;;;;4.93;2.80;;;9.80;99.90;;;;;;4425047;32;20156;-69
2021/09/19 08:23:56;;;;;;;8.03;3.57;;;9.80;99.90;;;;;;4424304;32;20135;-69
2021/09/19 08:26:23;;;;;;;6.23;2.57;;;9.90;99.90;;;;;;4425025;32;20143;-69
2021/09/19 08:28:49;;;;;;;5.77;2.77;;;9.80;99.90;;;;;;4424804;32;20208;-69
2021/09/19 08:31:16;;;;;;;4.73;2.33;;;9.70;99.90;;;;;;4423612;32;20131;-68
2021/09/19 08:33:44;;;;;;;7.10;2.63;;;9.70;99.90;;;;;;4425780;32;20149;-70
2021/09/19 08:36:10;;;;;;;4.97;2.97;;;9.70;99.90;;;;;;4428397;32;20147;-70
2021/09/19 08:38:37;;;;;;;4.60;2.60;;;9.70;99.90;;;;;;4425136;32;20398;-70
2021/09/19 08:41:04;;;;;;;4.70;2.77;;;9.60;99.90;;;;;;4425217;32;20123;-70
2021/09/19 08:43:31;;;;;;;5.47;3.27;;;9.70;99.90;;;;;;4424019;32;20132;-70
2021/09/19 08:45:57;;;;;;;7.03;2.90;;;9.70;99.90;;;;;;4425272;32;20251;-71
2021/09/19 08:48:25;;;;;;;3.63;2.53;;;9.70;99.90;;;;;;4424771;32;20127;-70
2021/09/19 08:50:53;;;;;;;5.83;2.70;;;9.80;99.90;;;;;;4423867;32;20201;-70
2021/09/19 08:53:23;;;;;;;4.07;2.50;;;9.90;99.90;;;;;;4423566;32;20134;-71
2021/09/19 08:55:50;;;;;;;4.83;2.80;;;9.90;99.90;;;;;;4424547;32;20135;-71
2021/09/19 08:58:17;;;;;;;4.23;2.40;;;10.00;99.90;;;;;;4423354;32;20162;-71
2021/09/19 09:00:49;;;;;;;4.50;2.50;;;10.00;99.90;;;;;;4424379;32;20463;-72
2021/09/19 09:03:22;;;;;;;3.07;2.57;;;10.00;99.90;;;;;;4424396;32;20165;-72
2021/09/19 09:05:56;;;;;;;5.03;2.80;;;10.00;99.90;;;;;;4426404;32;20166;-71
2021/09/19 09:08:24;;;;;;;4.27;2.57;;;10.00;99.90;;;;;;4426672;32;20215;-71
2021/09/19 09:10:53;;;;;;;4.73;2.87;;;9.90;99.90;;;;;;4428169;32;20135;-71
2021/09/19 09:13:26;;;;;;;4.73;3.17;;;10.00;99.90;;;;;;4426008;32;20195;-70
2021/09/19 09:16:07;;;;;;;5.63;2.77;;;10.10;99.90;;;;;;4426324;32;20132;-70
2021/09/19 09:18:42;;;;;;;4.87;2.70;;;10.20;99.90;;;;;;4427543;32;20526;-69
2021/09/19 09:21:10;;;;;;;5.13;2.90;;;10.10;99.90;;;;;;4427959;32;20206;-71
2021/09/19 09:23:42;;;;;;;4.20;2.70;;;10.10;99.90;;;;;;4427773;32;20204;-70
2021/09/19 09:26:30;;;;;;;5.17;2.60;;;10.20;99.90;;;;;;4426160;32;20131;-70
2021/09/19 09:29:00;;;;;;;4.23;2.70;;;10.20;99.90;;;;;;4426961;32;20271;-70
2021/09/19 09:31:34;;;;;;;4.50;2.80;;;10.20;99.90;;;;;;4427460;32;20230;-71
2021/09/19 09:34:17;;;;;;;3.77;2.73;;;10.30;99.90;;;;;;4427471;32;20139;-71
2021/09/19 09:36:57;;;;;;;5.00;2.70;;;10.30;99.90;;;;;;4427101;32;20119;-70
2021/09/19 09:39:40;;;;;;;3.80;2.57;;;10.40;99.90;;;;;;4426357;32;20196;-69
2021/09/19 09:42:18;;;;;;;12.37;2.90;;;10.40;99.90;;;;;;4427316;32;20191;-70
2021/09/19 09:44:53;;;;;;;4.23;2.67;;;10.40;99.90;;;;;;4425730;32;20211;-70
2021/09/19 09:47:28;;;;;;;4.27;2.63;;;10.40;99.90;;;;;;4425447;32;20139;-70
2021/09/19 09:49:57;;;;;;;5.37;2.83;;;10.40;99.90;;;;;;4427185;32;20439;-70
2021/09/19 09:52:28;;;;;;;5.27;2.70;;;10.30;99.90;;;;;;4426391;32;20155;-70
2021/09/19 09:55:01;;;;;;;4.93;2.70;;;10.40;99.90;;;;;;4427135;32;20135;-71
2021/09/19 09:57:37;;;;;;;5.37;2.60;;;10.40;99.90;;;;;;4427201;32;20189;-70
2021/09/19 10:00:08;;;;;;;4.50;2.63;;;10.50;99.90;;;;;;4426535;32;20130;-71
2021/09/19 10:02:37;;;;;;;4.13;2.33;;;10.50;99.90;;;;;;4425220;32;20196;-71
2021/09/19 10:05:07;;;;;;;4.90;2.47;;;10.50;99.90;;;;;;4426993;32;20154;-72
2021/09/19 10:07:35;;;;;;;6.37;2.80;;;10.50;99.90;;;;;;4424872;32;20140;-70
2021/09/19 10:10:07;;;;;;;4.33;2.90;;;10.40;99.90;;;;;;4427125;32;20142;-71
2021/09/19 10:12:34;;;;;;;5.60;2.50;;;10.50;99.90;;;;;;4424994;32;20140;-71
2021/09/19 10:15:05;;;;;;;5.53;2.90;;;10.50;99.90;;;;;;4424385;32;20136;-71
2021/09/19 10:17:32;;;;;;;4.53;2.63;;;10.50;99.90;;;;;;4424901;32;20518;-71
2021/09/19 10:20:02;;;;;;;4.33;2.60;;;10.60;99.90;;;;;;4426696;32;20139;-69
2021/09/19 10:22:43;;;;;;;3.50;2.67;;;10.80;99.90;;;;;;4425853;32;20131;-71
2021/09/19 10:25:20;;;;;;;4.47;2.70;;;10.80;99.90;;;;;;4424519;32;20202;-72
2021/09/19 10:27:49;;;;;;;4.30;2.87;;;10.70;99.90;;;;;;4424825;32;20192;-70
2021/09/19 10:30:18;;;;;;;4.07;2.97;;;10.70;99.90;;;;;;4425914;32;20123;-70
2021/09/19 10:32:48;;;;;;;7.23;2.60;;;10.70;99.90;;;;;;4426159;32;20422;-70
2021/09/19 10:35:18;;;;;;;5.27;2.60;;;10.60;99.90;;;;;;4425059;32;20405;-69
2021/09/19 10:37:50;;;;;;;5.67;2.80;;;10.50;99.90;;;;;;4424082;32;20179;-69
2021/09/19 10:40:31;;;;;;;4.00;2.60;;;10.40;99.90;;;;;;4424294;32;20496;-70
2021/09/19 10:42:58;;;;;;;5.67;2.83;;;10.50;99.90;;;;;;4425302;32;20131;-70
2021/09/19 10:45:39;;;;;;;4.47;2.53;;;10.50;99.90;;;;;;4425817;32;20525;-69
2021/09/19 10:48:18;;;;;;;5.13;2.60;;;10.50;99.90;;;;;;4424481;32;20188;-69
2021/09/19 10:50:46;;;;;;;3.77;2.53;;;10.50;99.90;;;;;;4422117;32;20220;-71
2021/09/19 10:53:16;;;;;;;5.40;2.70;;;10.40;99.90;;;;;;4423817;32;20162;-70
2021/09/19 10:55:59;;;;;;;5.07;2.83;;;10.50;99.90;;;;;;4424051;32;20462;-71
2021/09/19 10:58:30;;;;;;;5.00;2.80;;;10.50;99.90;;;;;;4425905;32;20458;-71
2021/09/19 11:01:17;;;;;;;4.30;2.60;;;10.50;99.90;;;;;;4431772;32;20146;-71
2021/09/19 11:04:08;;;;;;;3.77;2.70;;;10.60;99.90;;;;;;4420592;32;20434;-71
2021/09/19 11:06:40;;;;;;;5.03;2.77;;;10.70;99.90;;;;;;4413836;32;20167;-71
2021/09/19 11:09:28;;;;;;;4.23;2.50;;;10.80;99.90;;;;;;4423624;32;20177;-70
2021/09/19 11:12:17;;;;;;;4.07;2.67;;;11.00;99.90;;;;;;4423691;32;20226;-70
2021/09/19 11:14:56;;;;;;;3.70;2.63;;;10.80;99.90;;;;;;4423052;32;20140;-70
2021/09/19 11:17:24;;;;;;;5.23;3.00;;;10.80;99.90;;;;;;4419916;32;20200;-70
2021/09/19 11:20:09;;;;;;;5.93;2.67;;;10.80;99.90;;;;;;4425231;32;20215;-71
2021/09/19 11:22:37;;;;;;;6.10;3.07;;;11.00;99.90;;;;;;4425196;32;20405;-69
2021/09/19 11:25:05;;;;;;;8.13;2.70;;;11.10;99.90;;;;;;4424369;32;20203;-70
2021/09/19 11:27:33;;;;;;;4.60;2.70;;;11.00;99.90;;;;;;4424647;32;20312;-70
2021/09/19 11:30:01;;;;;;;5.83;3.00;;;10.90;99.90;;;;;;4423646;32;20143;-70
2021/09/19 11:32:31;;;;;;;4.83;2.80;;;10.90;99.90;;;;;;4425291;32;20142;-70
2021/09/19 11:34:58;;;;;;;5.53;2.63;;;10.80;99.90;;;;;;4425052;32;20244;-70
2021/09/19 11:37:26;;;;;;;3.70;2.53;;;10.80;99.90;;;;;;4425153;32;20481;-70
2021/09/19 11:39:53;;;;;;;4.97;3.00;;;10.80;99.90;;;;;;4425113;32;20143;-71
2021/09/19 11:42:20;;;;;;;3.93;2.90;;;10.80;99.90;;;;;;4425201;32;20496;-70
2021/09/19 11:44:48;;;;;;;3.80;2.93;;;10.80;99.90;;;;;;4425179;32;20151;-70
2021/09/19 11:47:19;;;;;;;5.87;2.70;;;10.90;99.90;;;;;;4424922;32;20139;-70
2021/09/19 11:49:49;;;;;;;4.33;2.60;;;11.00;99.90;;;;;;4425100;32;20131;-70
2021/09/19 11:52:17;;;;;;;4.07;2.27;;;11.00;99.90;;;;;;4424250;32;20198;-69
2021/09/19 11:54:44;;;;;;;3.80;2.70;;;11.10;99.90;;;;;;4425043;32;20192;-70
2021/09/19 11:57:13;;;;;;;4.67;2.87;;;11.10;99.90;;;;;;4425098;32;20119;-69
2021/09/19 11:59:44;;;;;;;3.63;2.60;;;11.20;99.90;;;;;;4423679;32;20468;-70
2021/09/19 12:02:13;;;;;;;5.57;2.80;;;11.20;99.90;;;;;;4423604;32;20143;-70
2021/09/19 12:04:45;;;;;;;3.40;2.57;;;11.30;99.90;;;;;;4423426;32;20162;-69
2021/09/19 12:07:13;;;;;;;6.23;3.03;;;11.30;99.90;;;;;;4424497;32;20132;-70
2021/09/19 12:09:53;;;;;;;4.70;2.50;;;11.40;99.90;;;;;;4425229;32;20166;-70
2021/09/19 12:12:21;;;;;;;5.03;2.67;;;11.40;99.90;;;;;;4424430;32;20420;-70
2021/09/19 12:14:50;;;;;;;3.97;2.53;;;11.30;99.90;;;;;;4424778;32;20174;-70
2021/09/19 12:17:24;;;;;;;4.37;2.83;;;11.40;99.90;;;;;;4425219;32;20170;-70
2021/09/19 12:19:58;;;;;;;3.87;2.63;;;11.30;99.90;;;;;;4425197;32;20179;-70
2021/09/19 12:22:26;;;;;;;5.47;2.73;;;11.30;99.90;;;;;;4408500;32;20135;-71
2021/09/19 12:24:59;;;;;;;5.57;2.63;;;11.20;99.90;;;;;;4409888;32;20404;-70
2021/09/19 12:27:29;;;;;;;4.70;2.63;;;11.20;99.90;;;;;;4407303;32;20144;-71
2021/09/19 12:30:06;;;;;;;4.33;2.80;;;11.30;99.90;;;;;;4407926;32;20173;-70
2021/09/19 12:32:33;;;;;;;4.33;2.60;;;11.20;99.90;;;;;;4409781;32;20172;-70
2021/09/19 12:35:02;;;;;;;5.77;2.70;;;11.20;99.90;;;;;;4411178;32;20509;-71
2021/09/19 12:37:37;;;;;;;7.30;2.80;;;11.30;99.90;;;;;;4423389;32;20142;-69
2021/09/19 12:40:07;;;;;;;4.30;2.53;;;11.30;99.90;;;;;;4428186;32;20149;-70
2021/09/19 12:42:34;;;;;;;7.67;3.03;;;11.20;99.90;;;;;;4426147;32;20123;-70
2021/09/19 12:45:08;;;;;;;3.80;2.80;;;11.20;99.90;;;;;;4425999;32;20176;-70
2021/09/19 12:47:37;;;;;;;6.50;2.93;;;11.20;99.90;;;;;;4425090;32;20127;-70
2021/09/19 12:50:10;;;;;;;3.67;2.70;;;11.10;99.90;;;;;;4424524;32;20147;-70
2021/09/19 12:52:37;;;;;;;4.60;3.07;;;11.10;99.90;;;;;;4426141;32;20158;-70
2021/09/19 12:55:06;;;;;;;6.40;2.67;;;11.10;99.90;;;;;;4427064;32;20162;-70
2021/09/19 12:57:33;;;;;;;3.87;2.63;;;11.10;99.90;;;;;;4426935;32;20127;-70
2021/09/19 13:00:01;;;;;;;5.03;3.00;;;11.20;99.90;;;;;;4427444;32;20140;-70